| time (UTC) | temp C | wind direction | speed KPH | gust KPH | rain 1hr cm | rain 24hr cm | rain mn cm | humidity % | barometer mb |
| 20260504190055 | 25 | 259 | 4.8 | 8.0 | 0.00 | 0.00 | 0.00 | 39 | 1016.0 |
| 20260504185555 | 25 | 227 | 6.4 | 9.7 | 0.00 | 0.00 | 0.00 | 38 | 1016.1 |
| 20260504185055 | 25 | 207 | 3.2 | 9.7 | 0.00 | 0.00 | 0.00 | 39 | 1016.2 |
| 20260504184556 | 25 | 238 | 1.6 | 6.4 | 0.00 | 0.00 | 0.00 | 38 | 1016.3 |
| 20260504184055 | 25 | 266 | 6.4 | 8.0 | 0.00 | 0.00 | 0.00 | 38 | 1016.3 |
| 20260504183556 | 25 | 161 | 4.8 | 6.4 | 0.00 | 0.00 | 0.00 | 39 | 1016.3 |
| 20260504183057 | 25 | 308 | 1.6 | 6.4 | 0.00 | 0.00 | 0.00 | 38 | 1016.3 |
| 20260504182555 | 24 | 157 | 3.2 | 8.0 | 0.00 | 0.00 | 0.00 | 38 | 1016.3 |
| 20260504182055 | 25 | 169 | 9.7 | 14.5 | 0.00 | 0.00 | 0.00 | 38 | 1016.4 |
| 20260504181555 | 25 | 171 | 4.8 | 6.4 | 0.00 | 0.00 | 0.00 | 39 | 1016.5 |
| 20260504181056 | 25 | 1 | 1.6 | 3.2 | 0.00 | 0.00 | 0.00 | 37 | 1016.6 |
| 20260504180555 | 24 | 122 | 3.2 | 6.4 | 0.00 | 0.00 | 0.00 | 39 | 1016.7 |
| 20260504180056 | 24 | 222 | 6.4 | 11.3 | 0.00 | 0.00 | 0.00 | 39 | 1016.7 |
| 20260504175556 | 24 | 168 | 8.0 | 12.9 | 0.00 | 0.00 | 0.00 | 38 | 1016.8 |
| 20260504175055 | 24 | 153 | 3.2 | 8.0 | 0.00 | 0.00 | 0.00 | 39 | 1016.8 |
| 20260504174555 | 24 | 167 | 4.8 | 6.4 | 0.00 | 0.00 | 0.00 | 38 | 1016.9 |
| 20260504174056 | 24 | 100 | 1.6 | 4.8 | 0.00 | 0.00 | 0.00 | 39 | 1017.0 |
| 20260504173555 | 24 | 149 | 4.8 | 11.3 | 0.00 | 0.00 | 0.00 | 37 | 1017.1 |
| 20260504173056 | 24 | 263 | 3.2 | 6.4 | 0.00 | 0.00 | 0.00 | 39 | 1017.1 |
| 20260504172556 | 24 | 172 | 4.8 | 9.7 | 0.00 | 0.00 | 0.00 | 40 | 1017.1 |
| 20260504171606 | 24 | 184 | 3.2 | 8.0 | 0.00 | 0.00 | 0.00 | 40 | 1017.3 |
| 20260504171055 | 24 | 40 | 1.6 | 6.4 | 0.00 | 0.00 | 0.00 | 45 | 1017.4 |
| 20260504170556 | 23 | 12 | 3.2 | 6.4 | 0.00 | 0.00 | 0.00 | 41 | 1017.4 |
| 20260504151056 | 21 | 176 | 4.8 | 8.0 | 0.00 | 0.00 | 0.00 | 49 | 1018.4 |
| 20260504150557 | 21 | 198 | 6.4 | 12.9 | 0.00 | 0.00 | 0.00 | 50 | 1018.4 |
| 20260504141056 | 19 | 209 | 4.8 | 6.4 | 0.00 | 0.00 | 0.00 | 68 | 1018.7 |
| 20260504140142 | 19 | 122 | 1.6 | 3.2 | 0.00 | 0.00 | 0.00 | 66 | 1018.7 |
| 20260504130556 | 12 | 231 | 0.0 | 1.6 | 0.00 | 0.00 | 0.00 | 94 | 1018.7 |
| 20260504110556 | 6 | 0 | 0.0 | 0.0 | 0.00 | 0.00 | 0.00 | 97 | 1018.1 |
| 20260504100555 | 6 | 0 | 0.0 | 0.0 | 0.00 | 0.00 | 0.00 | 96 | 1018.2 |
| 20260504081555 | 7 | 0 | 0.0 | 0.0 | 0.00 | 0.00 | 0.00 | 96 | 1018.3 |
| 20260504081055 | 7 | 0 | 0.0 | 0.0 | 0.00 | 0.00 | 0.00 | 96 | 1018.3 |
| 20260504080556 | 7 | 238 | 0.0 | 1.6 | 0.00 | 0.00 | 0.00 | 96 | 1018.4 |
| 20260504050555 | 9 | 0 | 0.0 | 0.0 | 0.00 | 0.00 | 0.00 | 94 | 1019.3 |
| 20260504045555 | 9 | 0 | 0.0 | 0.0 | 0.00 | 0.00 | 0.00 | 94 | 1019.4 |
| 20260504045055 | 10 | 0 | 0.0 | 0.0 | 0.00 | 0.00 | 0.00 | 93 | 1019.4 |
| 20260504044555 | 10 | 0 | 0.0 | 0.0 | 0.00 | 0.00 | 0.00 | 93 | 1019.4 |
| 20260504044057 | 10 | 61 | 0.0 | 0.0 | 0.00 | 0.00 | 0.00 | 93 | 1019.4 |
| 20260504043555 | 10 | 0 | 0.0 | 0.0 | 0.00 | 0.00 | 0.00 | 93 | 1019.4 |
| 20260504043055 | 10 | 0 | 0.0 | 0.0 | 0.00 | 0.00 | 0.00 | 93 | 1019.4 |
| 20260504042555 | 10 | 0 | 0.0 | 0.0 | 0.00 | 0.00 | 0.00 | 93 | 1019.5 |
| 20260504042055 | 10 | 0 | 0.0 | 0.0 | 0.00 | 0.00 | 0.00 | 92 | 1019.5 |
| 20260504041555 | 10 | 0 | 0.0 | 0.0 | 0.00 | 0.00 | 0.00 | 92 | 1019.4 |
| 20260504041055 | 10 | 0 | 0.0 | 0.0 | 0.00 | 0.00 | 0.00 | 92 | 1019.4 |
| 20260504040555 | 10 | 0 | 0.0 | 0.0 | 0.00 | 0.00 | 0.00 | 92 | 1019.3 |
| 20260504040056 | 10 | 0 | 0.0 | 0.0 | 0.00 | 0.00 | 0.00 | 92 | 1019.4 |
| 20260504035555 | 10 | 0 | 0.0 | 0.0 | 0.00 | 0.00 | 0.00 | 92 | 1019.4 |
| 20260504035055 | 10 | 0 | 0.0 | 0.0 | 0.00 | 0.00 | 0.00 | 91 | 1019.5 |
| 20260504034556 | 10 | 354 | 0.0 | 3.2 | 0.00 | 0.00 | 0.00 | 91 | 1019.5 |
| 20260504034055 | 10 | 0 | 0.0 | 0.0 | 0.00 | 0.00 | 0.00 | 91 | 1019.4 |
| 20260504033556 | 11 | 0 | 0.0 | 0.0 | 0.00 | 0.00 | 0.00 | 91 | 1019.4 |
| 20260504033055 | 11 | 0 | 0.0 | 0.0 | 0.00 | 0.00 | 0.00 | 91 | 1019.3 |
| 20260504032555 | 11 | 0 | 0.0 | 0.0 | 0.00 | 0.00 | 0.00 | 91 | 1019.3 |
| 20260504032055 | 11 | 0 | 0.0 | 0.0 | 0.00 | 0.00 | 0.00 | 91 | 1019.3 |
| 20260504031555 | 11 | 0 | 0.0 | 0.0 | 0.00 | 0.00 | 0.00 | 91 | 1019.2 |
| 20260504031055 | 11 | 0 | 0.0 | 0.0 | 0.00 | 0.00 | 0.00 | 91 | 1019.2 |
| 20260504030557 | 11 | 0 | 0.0 | 0.0 | 0.00 | 0.00 | 0.00 | 90 | 1019.1 |
| 20260504030055 | 11 | 0 | 0.0 | 0.0 | 0.00 | 0.00 | 0.00 | 90 | 1019.1 |
| 20260504025555 | 11 | 210 | 1.6 | 4.8 | 0.00 | 0.00 | 0.00 | 89 | 1019.1 |
| 20260504025058 | 11 | 286 | 0.0 | 3.2 | 0.00 | 0.00 | 0.00 | 88 | 1019.1 |
| 20260504024556 | 12 | 0 | 0.0 | 0.0 | 0.00 | 0.00 | 0.00 | 87 | 1019.0 |
| 20260504024055 | 12 | 0 | 0.0 | 0.0 | 0.00 | 0.00 | 0.00 | 87 | 1019.0 |
| 20260504023556 | 12 | 0 | 0.0 | 0.0 | 0.00 | 0.00 | 0.00 | 87 | 1019.0 |
| 20260504023055 | 12 | 0 | 0.0 | 0.0 | 0.00 | 0.00 | 0.00 | 84 | 1019.0 |
| 20260504022555 | 12 | 0 | 0.0 | 0.0 | 0.00 | 0.00 | 0.00 | 83 | 1018.9 |
| 20260504022055 | 12 | 0 | 0.0 | 0.0 | 0.00 | 0.00 | 0.00 | 83 | 1018.9 |
| 20260504021555 | 12 | 0 | 0.0 | 0.0 | 0.00 | 0.00 | 0.00 | 82 | 1018.9 |
| 20260504021055 | 12 | 338 | 0.0 | 1.6 | 0.00 | 0.00 | 0.00 | 82 | 1018.8 |
| 20260504020555 | 13 | 0 | 0.0 | 0.0 | 0.00 | 0.00 | 0.00 | 82 | 1018.7 |
| 20260504020055 | 13 | 312 | 0.0 | 1.6 | 0.00 | 0.00 | 0.00 | 82 | 1018.7 |
| 20260504015555 | 13 | 0 | 0.0 | 0.0 | 0.00 | 0.00 | 0.00 | 81 | 1018.7 |
| 20260504015058 | 13 | 348 | 1.6 | 3.2 | 0.00 | 0.00 | 0.00 | 81 | 1018.7 |
| 20260504014555 | 13 | 0 | 0.0 | 0.0 | 0.00 | 0.00 | 0.00 | 83 | 1018.7 |
| 20260504014056 | 13 | 35 | 0.0 | 3.2 | 0.00 | 0.00 | 0.00 | 83 | 1018.6 |
| 20260504013555 | 13 | 0 | 0.0 | 0.0 | 0.00 | 0.00 | 0.00 | 81 | 1018.6 |
| 20260504013055 | 14 | 0 | 0.0 | 0.0 | 0.00 | 0.00 | 0.00 | 80 | 1018.5 |
| 20260504012556 | 14 | 0 | 0.0 | 0.0 | 0.00 | 0.00 | 0.00 | 79 | 1018.4 |
| 20260504012055 | 15 | 0 | 0.0 | 0.0 | 0.00 | 0.00 | 0.00 | 77 | 1018.4 |
| 20260504011555 | 15 | 0 | 0.0 | 0.0 | 0.00 | 0.00 | 0.00 | 75 | 1018.4 |
| 20260504011056 | 15 | 0 | 0.0 | 0.0 | 0.00 | 0.00 | 0.00 | 73 | 1018.3 |
| 20260504010556 | 15 | 0 | 0.0 | 0.0 | 0.00 | 0.00 | 0.00 | 70 | 1018.2 |
| 20260504010055 | 16 | 0 | 0.0 | 0.0 | 0.00 | 0.00 | 0.00 | 67 | 1018.1 |
| 20260504005556 | 16 | 0 | 0.0 | 0.0 | 0.00 | 0.00 | 0.00 | 64 | 1018.0 |
| 20260504005055 | 16 | 0 | 0.0 | 0.0 | 0.00 | 0.00 | 0.00 | 61 | 1017.9 |
| 20260504004555 | 16 | 0 | 0.0 | 0.0 | 0.00 | 0.00 | 0.00 | 62 | 1017.9 |
| 20260504004055 | 17 | 0 | 0.0 | 0.0 | 0.00 | 0.00 | 0.00 | 60 | 1017.7 |
| 20260504003555 | 17 | 0 | 0.0 | 0.0 | 0.00 | 0.00 | 0.00 | 58 | 1017.7 |
| 20260504003055 | 17 | 0 | 0.0 | 0.0 | 0.00 | 0.00 | 0.00 | 65 | 1017.6 |
| 20260504002556 | 18 | 0 | 0.0 | 0.0 | 0.00 | 0.00 | 0.00 | 60 | 1017.6 |
| 20260504002055 | 18 | 0 | 0.0 | 0.0 | 0.00 | 0.00 | 0.00 | 60 | 1017.5 |
| 20260504001556 | 19 | 0 | 0.0 | 0.0 | 0.00 | 0.00 | 0.00 | 61 | 1017.4 |
| 20260504001055 | 20 | 17 | 0.0 | 1.6 | 0.00 | 0.00 | 0.00 | 56 | 1017.4 |
| 20260504000556 | 20 | 66 | 0.0 | 1.6 | 0.00 | 0.00 | 0.00 | 55 | 1017.4 |
| 20260504000055 | 20 | 55 | 0.0 | 0.0 | 0.00 | 0.00 | 0.00 | 44 | 1017.3 |
| 20260503235555 | 21 | 0 | 0.0 | 0.0 | 0.00 | 0.00 | 0.00 | 44 | 1017.4 |
| 20260503235055 | 21 | 44 | 0.0 | 3.2 | 0.00 | 0.00 | 0.00 | 44 | 1017.4 |
| 20260503234556 | 21 | 0 | 0.0 | 0.0 | 0.00 | 0.00 | 0.00 | 43 | 1017.4 |
| 20260503234055 | 22 | 359 | 3.2 | 4.8 | 0.00 | 0.00 | 0.00 | 42 | 1017.4 |
| 20260503233555 | 22 | 335 | 1.6 | 6.4 | 0.00 | 0.00 | 0.00 | 40 | 1017.5 |
| 20260503233056 | 23 | 352 | 1.6 | 3.2 | 0.00 | 0.00 | 0.00 | 39 | 1017.5 |
| 20260503232555 | 23 | 0 | 0.0 | 0.0 | 0.00 | 0.00 | 0.00 | 41 | 1017.5 |
| 20260503232055 | 23 | 353 | 0.0 | 3.2 | 0.00 | 0.00 | 0.00 | 39 | 1017.5 |
| 20260503231555 | 23 | 345 | 3.2 | 6.4 | 0.00 | 0.00 | 0.00 | 37 | 1017.5 |
| 20260503231055 | 23 | 351 | 4.8 | 6.4 | 0.00 | 0.00 | 0.00 | 35 | 1017.5 |
| 20260503230555 | 23 | 295 | 0.0 | 1.6 | 0.00 | 0.00 | 0.00 | 38 | 1017.5 |
| 20260503230056 | 23 | 3 | 1.6 | 6.4 | 0.00 | 0.00 | 0.00 | 36 | 1017.5 |
| 20260503225555 | 23 | 352 | 3.2 | 9.7 | 0.00 | 0.00 | 0.00 | 36 | 1017.4 |
| 20260503225055 | 23 | 10 | 1.6 | 4.8 | 0.00 | 0.00 | 0.00 | 36 | 1017.4 |
| 20260503224555 | 23 | 276 | 0.0 | 4.8 | 0.00 | 0.00 | 0.00 | 39 | 1017.5 |
| 20260503224055 | 23 | 0 | 3.2 | 8.0 | 0.00 | 0.00 | 0.00 | 36 | 1017.5 |
| 20260503223556 | 23 | 5 | 4.8 | 14.5 | 0.00 | 0.00 | 0.00 | 38 | 1017.5 |
| 20260503223055 | 23 | 245 | 3.2 | 6.4 | 0.00 | 0.00 | 0.00 | 36 | 1017.5 |
| 20260503222555 | 23 | 330 | 1.6 | 4.8 | 0.00 | 0.00 | 0.00 | 37 | 1017.6 |
| 20260503222055 | 23 | 351 | 1.6 | 6.4 | 0.00 | 0.00 | 0.00 | 37 | 1017.6 |
| 20260503221555 | 23 | 6 | 3.2 | 3.2 | 0.00 | 0.00 | 0.00 | 36 | 1017.6 |
| 20260503221055 | 23 | 239 | 3.2 | 4.8 | 0.00 | 0.00 | 0.00 | 35 | 1017.5 |
| 20260503220555 | 23 | 245 | 1.6 | 4.8 | 0.00 | 0.00 | 0.00 | 37 | 1017.6 |
| 20260503220055 | 23 | 3 | 1.6 | 6.4 | 0.00 | 0.00 | 0.00 | 37 | 1017.6 |
| 20260503215556 | 23 | 353 | 3.2 | 8.0 | 0.00 | 0.00 | 0.00 | 36 | 1017.7 |
| 20260503215055 | 23 | 0 | 3.2 | 8.0 | 0.00 | 0.00 | 0.00 | 35 | 1017.6 |
| 20260503214556 | 23 | 347 | 1.6 | 4.8 | 0.00 | 0.00 | 0.00 | 35 | 1017.7 |
| 20260503214055 | 23 | 346 | 4.8 | 11.3 | 0.00 | 0.00 | 0.00 | 36 | 1017.7 |
| 20260503213556 | 23 | 239 | 3.2 | 8.0 | 0.00 | 0.00 | 0.00 | 35 | 1017.7 |
| 20260503213056 | 23 | 279 | 1.6 | 3.2 | 0.00 | 0.00 | 0.00 | 35 | 1017.7 |
| 20260503212555 | 23 | 351 | 1.6 | 6.4 | 0.00 | 0.00 | 0.00 | 38 | 1017.7 |
| 20260503212055 | 23 | 0 | 6.4 | 8.0 | 0.00 | 0.00 | 0.00 | 37 | 1017.9 |
| 20260503211556 | 23 | 5 | 4.8 | 6.4 | 0.00 | 0.00 | 0.00 | 38 | 1017.9 |
| 20260503211055 | 23 | 12 | 4.8 | 12.9 | 0.00 | 0.00 | 0.00 | 37 | 1018.0 |
| 20260503210557 | 23 | 281 | 0.0 | 3.2 | 0.00 | 0.00 | 0.00 | 38 | 1017.9 |
| 20260503210056 | 23 | 311 | 1.6 | 3.2 | 0.00 | 0.00 | 0.00 | 37 | 1017.9 |
| 20260503205555 | 23 | 289 | 1.6 | 4.8 | 0.00 | 0.00 | 0.00 | 36 | 1018.0 |
| 20260503205055 | 23 | 318 | 3.2 | 6.4 | 0.00 | 0.00 | 0.00 | 36 | 1018.1 |
| 20260503204556 | 23 | 356 | 4.8 | 9.7 | 0.00 | 0.00 | 0.00 | 35 | 1018.2 |
| 20260503204055 | 23 | 344 | 4.8 | 11.3 | 0.00 | 0.00 | 0.00 | 34 | 1018.3 |
| 20260503203557 | 23 | 10 | 4.8 | 8.0 | 0.00 | 0.00 | 0.00 | 36 | 1018.3 |
| 20260503203056 | 23 | 292 | 1.6 | 6.4 | 0.00 | 0.00 | 0.00 | 37 | 1018.4 |
| 20260503202555 | 23 | 271 | 4.8 | 8.0 | 0.00 | 0.00 | 0.00 | 35 | 1018.5 |
| 20260503202055 | 23 | 301 | 4.8 | 8.0 | 0.00 | 0.00 | 0.00 | 35 | 1018.7 |
| 20260503201555 | 23 | 267 | 4.8 | 9.7 | 0.00 | 0.00 | 0.00 | 37 | 1018.7 |
| 20260503201055 | 23 | 33 | 3.2 | 6.4 | 0.00 | 0.00 | 0.00 | 37 | 1018.7 |
| 20260503200555 | 23 | 29 | 3.2 | 6.4 | 0.00 | 0.00 | 0.00 | 38 | 1018.8 |
| 20260503200055 | 23 | 355 | 8.0 | 16.1 | 0.00 | 0.00 | 0.00 | 35 | 1019.0 |
| 20260503195555 | 23 | 273 | 3.2 | 8.0 | 0.00 | 0.00 | 0.00 | 38 | 1019.1 |
| 20260503195055 | 23 | 273 | 3.2 | 4.8 | 0.00 | 0.00 | 0.00 | 38 | 1019.1 |
| 20260503194555 | 23 | 73 | 3.2 | 6.4 | 0.00 | 0.00 | 0.00 | 38 | 1019.2 |
| 20260503194055 | 23 | 18 | 1.6 | 4.8 | 0.00 | 0.00 | 0.00 | 37 | 1019.2 |
| 20260503193555 | 23 | 247 | 1.6 | 3.2 | 0.00 | 0.00 | 0.00 | 38 | 1019.4 |
| 20260503193057 | 22 | 0 | 8.0 | 12.9 | 0.00 | 0.00 | 0.00 | 38 | 1019.4 |
| 20260503192555 | 23 | 32 | 6.4 | 12.9 | 0.00 | 0.00 | 0.00 | 39 | 1019.5 |
| 20260503192056 | 23 | 353 | 0.0 | 6.4 | 0.00 | 0.00 | 0.00 | 42 | 1019.6 |
| 20260503191555 | 22 | 256 | 8.0 | 14.5 | 0.00 | 0.00 | 0.00 | 37 | 1019.6 |
| 20260503191055 | 22 | 5 | 3.2 | 6.4 | 0.00 | 0.00 | 0.00 | 39 | 1019.7 |
| 20260503190556 | 22 | 352 | 8.0 | 14.5 | 0.00 | 0.00 | 0.00 | 35 | 1019.8 |